createdAt,value
2023-03-08T00:01:27.697Z,18.73
2023-03-08T00:03:55.836Z,17.80
2023-03-08T00:06:23.628Z,17.95
2023-03-08T00:08:53.439Z,18.02
2023-03-08T00:11:20.241Z,20.58
2023-03-08T00:13:49.282Z,19.20
2023-03-08T00:16:16.430Z,18.88
2023-03-08T00:18:43.361Z,17.15
2023-03-08T00:21:16.029Z,18.67
2023-03-08T00:23:48.798Z,17.83
2023-03-08T00:26:17.717Z,19.30
2023-03-08T00:28:47.960Z,18.25
2023-03-08T00:31:17.445Z,18.73
2023-03-08T00:33:46.483Z,17.23
2023-03-08T00:36:21.289Z,17.52
2023-03-08T00:38:51.566Z,17.98
2023-03-08T00:41:18.909Z,17.70
2023-03-08T00:43:48.052Z,17.65
2023-03-08T00:46:17.190Z,19.40
2023-03-08T00:48:45.151Z,18.80
2023-03-08T00:51:16.081Z,18.77
2023-03-08T00:53:49.665Z,16.95
2023-03-08T00:56:16.700Z,18.23
2023-03-08T00:58:46.520Z,17.98
2023-03-08T01:01:18.390Z,17.80
2023-03-08T01:03:47.529Z,17.65
2023-03-08T01:06:18.864Z,16.52
2023-03-08T01:08:46.002Z,16.77
2023-03-08T01:11:19.865Z,15.70
2023-03-08T01:13:55.748Z,17.85
2023-03-08T01:16:30.712Z,17.65
2023-03-08T01:18:59.752Z,17.00
2023-03-08T01:21:34.480Z,17.20
2023-03-08T01:24:03.596Z,16.08
2023-03-08T01:26:30.377Z,16.90
2023-03-08T01:28:57.598Z,17.02
2023-03-08T01:31:30.082Z,16.95
2023-03-08T01:34:00.853Z,15.95
2023-03-08T01:36:31.725Z,17.20
2023-03-08T01:39:04.222Z,15.88
2023-03-08T01:41:32.030Z,17.48
2023-03-08T01:44:09.483Z,17.00
2023-03-08T01:46:37.132Z,17.35
2023-03-08T01:49:28.063Z,17.15
2023-03-08T01:52:06.994Z,17.52
2023-03-08T01:54:38.328Z,17.60
2023-03-08T01:57:16.633Z,17.20
2023-03-08T01:59:47.318Z,16.70
2023-03-08T02:02:14.296Z,16.88
2023-03-08T02:04:41.238Z,18.38
2023-03-08T02:07:14.257Z,17.73
2023-03-08T02:09:45.069Z,17.55
2023-03-08T02:14:44.918Z,16.70
2023-03-08T02:17:14.289Z,16.05
2023-03-08T02:19:50.174Z,16.10
2023-03-08T02:22:17.749Z,16.80
2023-03-08T02:24:50.834Z,17.50
2023-03-08T02:27:26.327Z,15.77
2023-03-08T02:29:56.551Z,17.48
2023-03-08T02:32:23.536Z,18.10
2023-03-08T02:34:58.079Z,17.67
2023-03-08T02:37:28.421Z,17.02
2023-03-08T02:39:55.311Z,16.27
2023-03-08T02:42:22.472Z,16.40
2023-03-08T02:44:49.229Z,16.17
2023-03-08T02:47:16.717Z,16.35
2023-03-08T02:49:46.450Z,16.80
2023-03-08T02:54:40.662Z,16.35
2023-03-08T02:57:07.467Z,15.18
2023-03-08T02:59:37.910Z,17.60
2023-03-08T03:02:07.597Z,17.77
2023-03-08T03:04:40.368Z,17.35
2023-03-08T03:07:09.680Z,15.85
2023-03-08T03:09:36.626Z,17.45
2023-03-08T03:12:03.742Z,16.88
2023-03-08T03:14:34.891Z,16.48
2023-03-08T03:17:02.240Z,16.13
2023-03-08T03:19:29.120Z,16.77
2023-03-08T03:21:58.306Z,18.02
2023-03-08T03:24:27.812Z,17.52
2023-03-08T03:26:58.632Z,17.00
2023-03-08T03:29:31.613Z,18.02
2023-03-08T03:32:11.436Z,20.40
2023-03-08T03:34:38.572Z,18.45
2023-03-08T03:37:08.532Z,18.73
2023-03-08T03:39:39.754Z,19.02
2023-03-08T03:42:09.570Z,18.92
2023-03-08T03:44:40.335Z,18.48
2023-03-08T03:47:14.000Z,17.20
2023-03-08T03:49:40.847Z,17.17
2023-03-08T03:52:10.477Z,16.10
2023-03-08T03:54:42.897Z,17.05
2023-03-08T03:57:12.125Z,16.08
2023-03-08T03:59:46.681Z,17.10
2023-03-08T04:02:13.502Z,16.63
2023-03-08T04:04:51.653Z,17.23
2023-03-08T04:07:22.517Z,18.17
2023-03-08T04:09:55.897Z,17.08
2023-03-08T04:12:22.762Z,16.15
2023-03-08T04:14:50.007Z,17.63
2023-03-08T04:17:20.408Z,18.23
2023-03-08T04:19:53.798Z,16.90
2023-03-08T04:22:24.039Z,17.42
2023-03-08T04:25:00.699Z,18.55
2023-03-08T04:27:44.599Z,19.13
2023-03-08T04:30:14.633Z,19.00
2023-03-08T04:32:43.858Z,18.38
2023-03-08T04:35:11.108Z,18.77
2023-03-08T04:37:40.281Z,17.23
2023-03-08T04:40:14.967Z,19.10
2023-03-08T04:42:49.394Z,19.27
2023-03-08T04:45:22.388Z,17.90
2023-03-08T04:47:49.909Z,18.98
2023-03-08T04:50:17.035Z,17.45
2023-03-08T04:52:46.504Z,18.75
2023-03-08T04:55:13.365Z,18.75
2023-03-08T04:57:42.481Z,17.52
2023-03-08T05:00:12.796Z,18.63
2023-03-08T05:02:41.346Z,18.77
2023-03-08T05:05:13.077Z,18.95
2023-03-08T05:07:40.742Z,18.70
2023-03-08T05:10:10.497Z,19.45
2023-03-08T05:12:43.086Z,17.90
2023-03-08T05:15:10.797Z,17.60
2023-03-08T05:17:38.078Z,15.18
2023-03-08T05:20:06.066Z,15.68
2023-03-08T05:22:51.382Z,14.57
2023-03-08T05:25:26.425Z,14.35
2023-03-08T05:27:58.524Z,13.82
2023-03-08T05:30:29.019Z,14.50
2023-03-08T05:32:55.898Z,13.65
2023-03-08T05:35:22.823Z,13.63
2023-03-08T05:37:51.072Z,13.15
2023-03-08T05:40:18.255Z,13.68
2023-03-08T05:42:46.088Z,12.45
2023-03-08T05:45:18.605Z,11.73
2023-03-08T05:47:47.667Z,12.85
2023-03-08T05:50:17.106Z,12.73
2023-03-08T05:52:48.673Z,11.60
2023-03-08T05:55:23.467Z,10.30
2023-03-08T05:57:50.751Z,11.27
2023-03-08T06:00:20.573Z,11.55
2023-03-08T06:02:54.890Z,11.88
2023-03-08T06:05:24.524Z,11.15
2023-03-08T06:07:57.199Z,11.70
2023-03-08T06:10:24.159Z,10.73
2023-03-08T06:12:52.253Z,12.13
2023-03-08T06:15:20.541Z,11.75
2023-03-08T06:17:56.124Z,11.23
2023-03-08T06:20:28.174Z,11.77
2023-03-08T06:22:56.163Z,11.50
2023-03-08T06:25:26.029Z,11.43
2023-03-08T06:27:53.452Z,11.60
2023-03-08T06:30:31.756Z,11.63
2023-03-08T06:33:02.877Z,10.90
2023-03-08T06:35:32.333Z,11.23
2023-03-08T06:40:30.615Z,10.80
2023-03-08T06:42:57.626Z,12.48
2023-03-08T06:45:24.414Z,11.82
2023-03-08T06:47:51.485Z,10.57
2023-03-08T06:50:18.883Z,11.35
2023-03-08T06:52:48.075Z,11.32
2023-03-08T06:55:18.250Z,11.25
2023-03-08T06:57:47.081Z,10.55
2023-03-08T07:00:16.619Z,9.95
2023-03-08T07:02:45.954Z,11.32
2023-03-08T07:05:18.013Z,9.85
2023-03-08T07:07:45.086Z,10.65
2023-03-08T07:10:14.860Z,9.65
2023-03-08T07:12:48.413Z,10.85
2023-03-08T07:15:16.598Z,10.48
2023-03-08T07:17:46.808Z,9.70
2023-03-08T07:20:18.055Z,10.60
2023-03-08T07:22:45.024Z,10.90
2023-03-08T07:25:18.350Z,10.93
2023-03-08T07:27:45.523Z,11.13
2023-03-08T07:30:16.461Z,10.30
2023-03-08T07:32:45.865Z,10.15
2023-03-08T07:37:46.275Z,10.60
2023-03-08T07:40:14.772Z,10.82
2023-03-08T07:42:43.889Z,10.70
2023-03-08T07:45:28.228Z,10.13
2023-03-08T07:47:57.293Z,10.88
2023-03-08T07:50:24.195Z,9.73
2023-03-08T07:52:50.963Z,10.85
2023-03-08T07:55:23.082Z,11.38
2023-03-08T07:57:52.140Z,10.23
2023-03-08T08:00:19.532Z,9.48
2023-03-08T08:02:47.042Z,9.48
2023-03-08T08:05:14.080Z,10.38
2023-03-08T08:07:40.920Z,9.57
2023-03-08T08:10:08.379Z,9.07
2023-03-08T08:12:37.787Z,9.20
2023-03-08T08:15:07.123Z,9.32
2023-03-08T08:17:36.917Z,8.70
2023-03-08T08:20:05.614Z,8.00
2023-03-08T08:22:36.760Z,9.38
2023-03-08T08:25:05.365Z,9.40
2023-03-08T08:27:35.882Z,8.35
2023-03-08T08:30:05.309Z,7.97
2023-03-08T08:32:34.375Z,8.50
2023-03-08T08:35:01.150Z,8.20
2023-03-08T08:37:31.371Z,8.05
2023-03-08T08:40:03.989Z,7.63
2023-03-08T08:42:33.410Z,7.93
2023-03-08T08:45:02.330Z,7.70
2023-03-08T08:47:31.469Z,8.32
2023-03-08T08:50:00.545Z,7.55
2023-03-08T08:52:30.097Z,8.15
2023-03-08T08:54:57.955Z,7.60
2023-03-08T08:57:27.613Z,7.70
2023-03-08T08:59:58.990Z,8.18
2023-03-08T09:02:25.871Z,7.72
2023-03-08T09:04:52.812Z,7.13
2023-03-08T09:07:24.754Z,7.28
2023-03-08T09:12:25.237Z,7.20
2023-03-08T09:14:52.000Z,7.80
2023-03-08T09:17:20.930Z,7.05
2023-03-08T09:19:49.962Z,6.60
2023-03-08T09:22:16.877Z,6.47
2023-03-08T09:24:45.852Z,7.05
2023-03-08T09:27:12.712Z,7.38
2023-03-08T09:29:39.886Z,7.10
2023-03-08T09:32:07.079Z,6.90
2023-03-08T09:34:34.749Z,6.57
2023-03-08T09:37:08.381Z,7.82
2023-03-08T09:39:35.289Z,6.07
2023-03-08T09:42:06.368Z,7.22
2023-03-08T09:44:57.024Z,7.47
2023-03-08T09:47:31.528Z,6.65
2023-03-08T09:50:12.860Z,6.88
2023-03-08T09:52:43.461Z,7.13
2023-03-08T09:55:20.709Z,6.03
2023-03-08T09:57:56.717Z,7.75
2023-03-08T10:00:32.875Z,6.28
2023-03-08T10:03:23.516Z,6.47
2023-03-08T10:06:16.620Z,6.60
2023-03-08T10:09:22.534Z,6.10
2023-03-08T10:12:15.267Z,7.18
2023-03-08T10:14:55.080Z,6.15
2023-03-08T10:17:25.286Z,6.53
2023-03-08T10:20:25.488Z,6.50
2023-03-08T10:23:07.859Z,6.88
2023-03-08T10:25:37.379Z,7.32
2023-03-08T10:28:17.250Z,6.13
2023-03-08T10:30:51.339Z,7.40
2023-03-08T10:33:21.054Z,7.75
2023-03-08T10:36:17.164Z,8.00
2023-03-08T10:38:55.965Z,9.93
2023-03-08T10:41:22.762Z,10.65
2023-03-08T10:43:53.240Z,10.65
2023-03-08T10:46:25.496Z,11.82
2023-03-08T10:48:52.668Z,10.88
2023-03-08T10:51:27.841Z,10.90
2023-03-08T10:54:03.011Z,11.27
2023-03-08T10:56:33.259Z,10.23
2023-03-08T10:59:03.683Z,10.48
2023-03-08T11:01:51.917Z,11.63
2023-03-08T11:04:22.960Z,11.07
2023-03-08T11:06:50.019Z,10.55
2023-03-08T11:09:22.487Z,10.48
2023-03-08T11:11:52.032Z,10.75
2023-03-08T11:14:19.327Z,9.52
2023-03-08T11:16:54.180Z,10.55
2023-03-08T11:19:41.928Z,9.43
2023-03-08T11:22:36.114Z,10.65
2023-03-08T11:25:09.018Z,9.70
2023-03-08T11:27:59.537Z,10.27
2023-03-08T11:30:29.419Z,9.00
2023-03-08T11:33:17.708Z,9.10
2023-03-08T11:35:57.019Z,10.02
2023-03-08T11:41:27.314Z,8.25
2023-03-08T11:44:22.389Z,9.52
2023-03-08T11:47:13.577Z,9.63
2023-03-08T11:49:49.725Z,9.70
2023-03-08T11:52:31.947Z,9.63
2023-03-08T11:55:08.820Z,8.68
2023-03-08T11:57:39.070Z,9.65
2023-03-08T12:00:38.473Z,8.63
2023-03-08T12:03:20.192Z,8.82
2023-03-08T12:06:22.710Z,9.00
2023-03-08T12:09:01.586Z,9.18
2023-03-08T12:11:30.214Z,8.90
2023-03-08T12:14:23.831Z,8.85
2023-03-08T12:16:56.037Z,8.25
2023-03-08T12:19:44.523Z,8.57
2023-03-08T12:22:45.582Z,6.70
2023-03-08T12:25:21.717Z,6.53
2023-03-08T12:28:06.792Z,6.60
2023-03-08T12:30:58.769Z,6.40
2023-03-08T12:33:32.488Z,6.60
2023-03-08T12:36:05.728Z,5.72
2023-03-08T12:38:37.670Z,6.38
2023-03-08T12:41:07.326Z,6.63
2023-03-08T12:43:35.788Z,6.97
2023-03-08T12:46:09.764Z,7.03
2023-03-08T12:48:45.866Z,6.82
2023-03-08T12:51:12.657Z,8.23
2023-03-08T12:53:51.427Z,7.55
2023-03-08T12:56:32.456Z,9.18
2023-03-08T12:59:24.120Z,9.18
2023-03-08T13:01:57.202Z,9.10
2023-03-08T13:04:43.059Z,8.05
2023-03-08T13:07:37.702Z,8.50
2023-03-08T13:10:07.578Z,8.00
2023-03-08T13:12:55.110Z,9.00
2023-03-08T13:15:28.773Z,7.97
2023-03-08T13:18:08.633Z,8.15
2023-03-08T13:20:51.742Z,7.80
2023-03-08T13:23:24.896Z,7.07
2023-03-08T13:26:11.596Z,7.97
2023-03-08T13:28:47.235Z,6.82
2023-03-08T13:31:20.571Z,7.03
2023-03-08T13:33:53.245Z,7.03
2023-03-08T13:36:20.376Z,6.82
2023-03-08T13:39:20.796Z,6.43
2023-03-08T13:41:48.096Z,6.53
2023-03-08T13:44:26.470Z,6.45
2023-03-08T13:47:00.600Z,6.30
2023-03-08T13:49:35.537Z,6.57
2023-03-08T13:52:08.262Z,6.03
2023-03-08T13:54:37.908Z,7.13
2023-03-08T13:57:19.134Z,6.72
2023-03-08T13:59:54.218Z,6.07
2023-03-08T14:02:28.746Z,5.00
2023-03-08T14:04:58.892Z,5.10
2023-03-08T14:07:28.432Z,5.45
2023-03-08T14:09:56.157Z,6.07
2023-03-08T14:12:26.242Z,5.20
2023-03-08T14:14:58.559Z,7.05
2023-03-08T14:17:30.052Z,5.60
2023-03-08T14:19:59.188Z,5.45
2023-03-08T14:22:38.577Z,4.82
2023-03-08T14:25:07.812Z,5.72
2023-03-08T14:27:42.572Z,5.75
2023-03-08T14:30:26.988Z,5.45
2023-03-08T14:33:07.085Z,6.38
2023-03-08T14:35:39.071Z,4.90
2023-03-08T14:38:25.300Z,4.63
2023-03-08T14:40:52.880Z,4.93
2023-03-08T14:43:24.825Z,5.15
2023-03-08T14:45:56.953Z,5.05
2023-03-08T14:48:35.201Z,6.10
2023-03-08T14:51:18.891Z,4.97
2023-03-08T14:54:00.462Z,5.32
2023-03-08T14:56:28.840Z,5.47
2023-03-08T14:59:00.477Z,4.75
2023-03-08T15:01:35.212Z,5.05
2023-03-08T15:04:04.925Z,4.72
2023-03-08T15:06:33.831Z,4.82
2023-03-08T15:09:01.718Z,5.18
2023-03-08T15:11:31.980Z,5.15
2023-03-08T15:13:59.747Z,4.78
2023-03-08T15:16:26.873Z,5.20
2023-03-08T15:18:53.775Z,4.85
2023-03-08T15:21:28.521Z,5.18
2023-03-08T15:23:58.233Z,4.55
2023-03-08T15:26:33.868Z,4.85
2023-03-08T15:29:06.361Z,4.85
2023-03-08T15:31:33.412Z,4.63
2023-03-08T15:34:05.283Z,6.00
2023-03-08T15:36:35.788Z,5.57
2023-03-08T15:39:04.677Z,5.32
2023-03-08T15:41:31.887Z,5.90
2023-03-08T15:43:59.029Z,5.35
2023-03-08T15:46:25.936Z,5.47
2023-03-08T15:48:52.851Z,5.22
2023-03-08T15:51:21.297Z,5.18
2023-03-08T15:53:51.067Z,5.95
2023-03-08T15:56:23.070Z,5.55
2023-03-08T15:58:49.840Z,4.80
2023-03-08T16:01:16.653Z,5.63
2023-03-08T16:03:45.738Z,4.95
2023-03-08T16:06:16.766Z,5.03
2023-03-08T16:08:46.648Z,5.88
2023-03-08T16:11:22.596Z,5.35
2023-03-08T16:13:53.951Z,5.80
2023-03-08T16:16:38.685Z,6.10
2023-03-08T16:19:14.164Z,7.47
2023-03-08T16:21:45.634Z,6.43
2023-03-08T16:24:14.962Z,6.10
2023-03-08T16:29:12.962Z,6.22
2023-03-08T16:31:48.083Z,6.50
2023-03-08T16:34:18.070Z,6.03
2023-03-08T16:36:50.202Z,6.60
2023-03-08T16:39:22.276Z,6.95
2023-03-08T16:41:51.674Z,7.28
2023-03-08T16:44:30.622Z,6.95
2023-03-08T16:47:00.097Z,6.50
2023-03-08T16:49:28.624Z,7.18
2023-03-08T16:51:56.054Z,7.25
2023-03-08T16:54:23.781Z,7.38
2023-03-08T16:56:50.862Z,8.40
2023-03-08T16:59:17.739Z,6.70
2023-03-08T17:01:47.384Z,7.30
2023-03-08T17:04:14.472Z,6.63
2023-03-08T17:06:46.792Z,7.93
2023-03-08T17:09:13.604Z,7.40
2023-03-08T17:11:43.432Z,7.50
2023-03-08T17:14:12.563Z,7.60
2023-03-08T17:16:43.499Z,7.50
2023-03-08T17:19:13.584Z,6.20
2023-03-08T17:21:40.619Z,6.22
2023-03-08T17:24:09.645Z,6.60
2023-03-08T17:26:46.044Z,6.72
2023-03-08T17:29:13.239Z,6.30
2023-03-08T17:31:42.324Z,6.38
2023-03-08T17:34:09.521Z,5.82
2023-03-08T17:36:36.656Z,6.20
2023-03-08T17:39:04.174Z,6.38
2023-03-08T17:41:34.508Z,6.80
2023-03-08T17:44:01.644Z,7.20
2023-03-08T17:46:28.485Z,7.25
2023-03-08T17:49:00.054Z,6.93
2023-03-08T17:51:29.285Z,6.47
2023-03-08T17:56:29.276Z,6.00
2023-03-08T17:58:57.777Z,6.28
2023-03-08T18:01:27.537Z,7.23
2023-03-08T18:03:58.197Z,7.63
2023-03-08T18:06:31.675Z,6.65
2023-03-08T18:09:04.121Z,7.03
2023-03-08T18:11:37.778Z,7.55
2023-03-08T18:14:12.738Z,6.88
2023-03-08T18:16:40.146Z,7.78
2023-03-08T18:19:07.619Z,8.85
2023-03-08T18:21:41.515Z,7.80
2023-03-08T18:24:12.740Z,7.43
2023-03-08T18:26:39.604Z,9.07
2023-03-08T18:29:08.038Z,8.77
2023-03-08T18:31:37.595Z,8.88
2023-03-08T18:34:10.114Z,8.05
2023-03-08T18:36:39.215Z,8.68
2023-03-08T18:39:08.485Z,9.13
2023-03-08T18:41:35.464Z,9.23
2023-03-08T18:44:02.293Z,8.63
2023-03-08T18:46:30.799Z,8.85
2023-03-08T18:49:07.089Z,8.90
2023-03-08T18:51:37.588Z,9.20
2023-03-08T18:54:05.010Z,8.75
2023-03-08T18:56:34.217Z,9.07
2023-03-08T18:59:03.829Z,9.65
2023-03-08T19:01:31.402Z,9.18
2023-03-08T19:04:04.057Z,9.27
2023-03-08T19:06:31.191Z,8.82
2023-03-08T19:09:02.178Z,9.20
2023-03-08T19:11:29.209Z,8.38
2023-03-08T19:13:56.133Z,8.75
2023-03-08T19:16:30.201Z,8.70
2023-03-08T19:19:04.087Z,8.80
2023-03-08T19:21:33.680Z,8.35
2023-03-08T19:24:00.905Z,9.05
2023-03-08T19:26:36.179Z,9.43
2023-03-08T19:29:20.257Z,7.88
2023-03-08T19:31:55.407Z,7.70
2023-03-08T19:34:25.726Z,8.20
2023-03-08T19:36:52.575Z,8.15
2023-03-08T19:39:30.363Z,7.03
2023-03-08T19:42:00.102Z,6.85
2023-03-08T19:44:28.026Z,6.65
2023-03-08T19:46:55.307Z,5.55
2023-03-08T19:49:25.328Z,5.05
2023-03-08T19:51:57.734Z,4.85
2023-03-08T19:54:27.916Z,4.75
2023-03-08T19:56:55.889Z,4.55
2023-03-08T19:59:25.486Z,3.97
2023-03-08T20:01:58.087Z,4.05
2023-03-08T20:04:29.310Z,4.00
2023-03-08T20:06:59.840Z,3.40
2023-03-08T20:09:29.290Z,4.55
2023-03-08T20:14:27.611Z,3.83
2023-03-08T20:16:57.573Z,4.57
2023-03-08T20:19:24.448Z,3.63
2023-03-08T20:21:51.230Z,3.38
2023-03-08T20:24:18.989Z,3.63
2023-03-08T20:26:46.257Z,3.45
2023-03-08T20:29:15.660Z,3.70
2023-03-08T20:31:42.533Z,2.92
2023-03-08T20:34:09.682Z,3.33
2023-03-08T20:36:37.537Z,2.92
2023-03-08T20:39:07.142Z,3.80
2023-03-08T20:41:33.869Z,2.83
2023-03-08T20:44:02.938Z,2.85
2023-03-08T20:46:33.300Z,2.88
2023-03-08T20:49:00.617Z,3.28
2023-03-08T20:51:28.465Z,2.75
2023-03-08T20:54:00.586Z,3.22
2023-03-08T20:56:32.035Z,2.85
2023-03-08T20:59:02.028Z,2.80
2023-03-08T21:01:31.533Z,3.83
2023-03-08T21:04:05.577Z,3.10
2023-03-08T21:06:32.556Z,2.92
2023-03-08T21:09:04.169Z,2.85
2023-03-08T21:11:33.720Z,2.80
2023-03-08T21:14:00.598Z,2.67
2023-03-08T21:16:30.915Z,2.90
2023-03-08T21:19:02.994Z,2.42
2023-03-08T21:21:32.940Z,2.67
2023-03-08T21:24:01.929Z,2.33
2023-03-08T21:26:29.952Z,2.25
2023-03-08T21:29:01.833Z,2.42
2023-03-08T21:31:30.034Z,2.72
2023-03-08T21:34:02.155Z,2.63
2023-03-08T21:36:33.905Z,1.88
2023-03-08T21:41:33.743Z,1.58
2023-03-08T21:44:09.446Z,1.60
2023-03-08T21:46:39.622Z,1.48
2023-03-08T21:49:07.848Z,1.83
2023-03-08T21:51:35.001Z,1.60
2023-03-08T21:54:05.934Z,1.60
2023-03-08T21:56:37.563Z,1.92
2023-03-08T21:59:04.613Z,1.58
2023-03-08T22:01:33.967Z,1.83
2023-03-08T22:04:03.835Z,2.05
2023-03-08T22:06:31.265Z,1.55
2023-03-08T22:08:58.360Z,1.60
2023-03-08T22:11:28.422Z,1.40
2023-03-08T22:13:57.396Z,1.48
2023-03-08T22:16:27.992Z,1.40
2023-03-08T22:18:56.850Z,1.67
2023-03-08T22:21:29.956Z,1.13
2023-03-08T22:23:59.764Z,2.00
2023-03-08T22:26:27.294Z,1.30
2023-03-08T22:28:58.031Z,1.40
2023-03-08T22:31:27.400Z,1.63
2023-03-08T22:36:24.003Z,1.67
2023-03-08T22:38:50.806Z,1.75
2023-03-08T22:41:23.041Z,1.95
2023-03-08T22:43:52.519Z,1.50
2023-03-08T22:46:24.194Z,1.30
2023-03-08T22:51:20.142Z,1.35
2023-03-08T22:53:49.611Z,1.48
2023-03-08T22:58:52.741Z,1.15
2023-03-08T23:01:22.322Z,1.10
2023-03-08T23:03:49.864Z,1.30
2023-03-08T23:06:22.054Z,1.45
2023-03-08T23:08:48.947Z,1.40
2023-03-08T23:11:15.825Z,1.15
2023-03-08T23:13:48.031Z,1.50
2023-03-08T23:16:16.337Z,1.40
2023-03-08T23:18:45.823Z,0.75
2023-03-08T23:23:42.850Z,1.20
2023-03-08T23:28:38.468Z,0.70
2023-03-08T23:31:15.208Z,1.00
2023-03-08T23:33:44.954Z,1.10
2023-03-08T23:36:16.433Z,0.88
2023-03-08T23:38:45.881Z,1.05
2023-03-08T23:41:18.502Z,1.00
2023-03-08T23:43:48.683Z,0.90
2023-03-08T23:46:17.640Z,0.70
2023-03-08T23:48:45.675Z,0.88
2023-03-08T23:51:20.206Z,0.73
2023-03-08T23:53:52.433Z,0.80
2023-03-08T23:56:26.918Z,0.90
2023-03-08T23:58:59.155Z,1.15
